Time;durP1;ratioP1;P1;durP2;ratioP2;P2;SDS_P1;SDS_P2;PMS_P1;PMS_P2;Temp;Humidity;BMP_temperature;BMP_pressure;BME280_temperature;BME280_humidity;BME280_pressure;Samples;Min_cycle;Max_cycle;Signal;HPM_P1;HPM_P2
2021/12/15 00:01:49;;;;;;;22.90;13.60;;;;;;;1.72;100.00;97638.42;107517;1287;29420;-75
2021/12/15 00:04:18;;;;;;;19.30;12.80;;;;;;;1.71;100.00;97636.36;107402;1287;40223;-75
2021/12/15 00:06:49;;;;;;;21.20;13.00;;;;;;;1.72;100.00;97638.63;107566;1286;33119;-75
2021/12/15 00:09:19;;;;;;;17.60;11.30;;;;;;;1.73;100.00;97641.77;107535;1287;35979;-75
2021/12/15 00:11:48;;;;;;;21.60;11.80;;;;;;;1.74;100.00;97644.73;107544;1287;28816;-75
2021/12/15 00:14:19;;;;;;;20.50;11.20;;;;;;;1.78;100.00;97648.64;107498;1285;38446;-75
2021/12/15 00:16:49;;;;;;;21.50;11.70;;;;;;;1.82;100.00;97648.00;107508;1287;32874;-75
2021/12/15 00:19:18;;;;;;;25.10;14.80;;;;;;;1.83;100.00;97650.02;107579;1287;42874;-74
2021/12/15 00:21:46;;;;;;;31.00;16.70;;;;;;;1.83;100.00;97650.99;107516;1287;42715;-75
2021/12/15 00:24:15;;;;;;;29.60;16.90;;;;;;;1.84;100.00;97645.63;107598;1285;31192;-75
2021/12/15 00:26:43;;;;;;;25.20;15.50;;;;;;;1.85;100.00;97646.70;107592;1287;32617;-75
2021/12/15 00:29:12;;;;;;;25.10;15.00;;;;;;;1.84;100.00;97646.88;107614;1286;28861;-75
2021/12/15 00:31:42;;;;;;;19.90;12.90;;;;;;;1.80;100.00;97649.77;107490;1286;30004;-75
2021/12/15 00:34:10;;;;;;;;;;;;;;;1.76;100.00;97647.67;107521;1287;35879;-75
2021/12/15 00:36:39;;;;;;;20.70;12.60;;;;;;;1.73;100.00;97646.98;107588;1287;37976;-75
2021/12/15 00:39:08;;;;;;;18.50;11.60;;;;;;;1.73;100.00;97651.23;107485;1287;36154;-76
2021/12/15 00:41:36;;;;;;;17.30;11.00;;;;;;;1.73;100.00;97648.71;107583;1285;33064;-75
2021/12/15 00:44:05;;;;;;;21.20;13.30;;;;;;;1.74;100.00;97649.48;107465;1286;39383;-75
2021/12/15 00:46:34;;;;;;;20.80;12.50;;;;;;;1.76;100.00;97659.09;107530;1285;32108;-75
2021/12/15 00:49:04;;;;;;;24.80;14.70;;;;;;;1.77;100.00;97660.83;107506;1287;38049;-76
2021/12/15 00:51:33;;;;;;;25.60;15.10;;;;;;;1.79;100.00;97661.55;107499;1287;34805;-75
2021/12/15 00:54:02;;;;;;;20.70;13.10;;;;;;;1.84;100.00;97663.11;107454;1287;30566;-75
2021/12/15 00:56:31;;;;;;;20.70;13.00;;;;;;;1.85;100.00;97666.83;107484;1286;37785;-75
2021/12/15 00:59:00;;;;;;;21.30;11.50;;;;;;;1.81;100.00;97670.73;107560;1287;36390;-75
2021/12/15 01:01:28;;;;;;;21.50;14.60;;;;;;;1.76;100.00;97674.38;107560;1286;31188;-75
2021/12/15 01:03:57;;;;;;;26.20;15.60;;;;;;;1.78;100.00;97677.80;107508;1287;36006;-75
2021/12/15 01:06:28;;;;;;;22.40;14.00;;;;;;;1.78;100.00;97676.19;107490;1286;41753;-75
2021/12/15 01:09:02;;;;;;;24.00;14.80;;;;;;;1.77;100.00;97681.50;107625;1286;36050;-75
2021/12/15 01:11:48;;;;;;;24.00;14.50;;;;;;;1.76;100.00;97682.19;107466;1286;40085;-75
2021/12/15 01:14:35;;;;;;;25.40;15.10;;;;;;;1.78;100.00;97681.82;107492;1284;37096;-75
2021/12/15 01:19:54;;;;;;;;;;;;;;;1.69;100.00;97677.17;107521;1286;35971;-76
2021/12/15 01:22:27;;;;;;;28.80;16.30;;;;;;;1.71;100.00;97675.86;107547;1286;36955;-75
2021/12/15 01:24:58;;;;;;;31.30;17.60;;;;;;;1.74;100.00;97679.52;107563;1287;27840;-75
2021/12/15 01:27:27;;;;;;;25.90;16.60;;;;;;;1.76;100.00;97682.83;107477;1287;43284;-75
2021/12/15 01:29:56;;;;;;;21.80;12.40;;;;;;;1.77;100.00;97679.92;107434;1285;36915;-75
2021/12/15 01:32:24;;;;;;;17.70;10.60;;;;;;;1.74;100.00;97674.41;107458;1286;33010;-76
2021/12/15 01:34:53;;;;;;;32.60;18.40;;;;;;;1.72;100.00;97668.82;107588;1285;37728;-75
2021/12/15 01:37:21;;;;;;;23.80;14.60;;;;;;;1.75;100.00;97665.81;107576;1285;29912;-75
2021/12/15 01:39:53;;;;;;;22.40;12.20;;;;;;;1.79;100.00;97656.84;107569;1286;28319;-75
2021/12/15 01:42:24;;;;;;;24.40;15.50;;;;;;;1.83;100.00;97651.71;107664;1285;31998;-75
2021/12/15 01:48:00;;;;;;;23.20;16.20;;;;;;;1.86;100.00;97664.29;107670;1286;32239;-75
2021/12/15 01:50:29;;;;;;;22.10;13.50;;;;;;;1.84;100.00;97663.76;107640;1287;33335;-76
2021/12/15 01:52:58;;;;;;;23.10;14.40;;;;;;;1.85;100.00;97665.08;107494;1286;30248;-75
2021/12/15 01:55:27;;;;;;;27.40;15.80;;;;;;;1.82;100.00;97664.86;107539;1287;50177;-75
2021/12/15 01:57:56;;;;;;;20.90;13.10;;;;;;;1.79;100.00;97664.33;107561;1287;30094;-75
2021/12/15 02:00:29;;;;;;;23.70;13.50;;;;;;;1.74;100.00;97662.02;107589;1286;35375;-75
2021/12/15 02:02:58;;;;;;;21.30;11.90;;;;;;;1.72;100.00;97652.17;107492;1287;33396;-75
2021/12/15 02:05:28;;;;;;;19.20;11.30;;;;;;;1.72;100.00;97645.79;107479;1284;38581;-75
2021/12/15 02:08:00;;;;;;;19.80;11.10;;;;;;;1.78;100.00;97645.10;107476;1287;35348;-75
2021/12/15 02:10:30;;;;;;;;;;;;;;;1.82;100.00;97650.73;107512;1285;39890;-75
2021/12/15 02:13:02;;;;;;;24.10;15.30;;;;;;;1.80;100.00;97652.91;107475;1286;38771;-75
2021/12/15 02:15:34;;;;;;;21.80;12.70;;;;;;;1.78;100.00;97654.23;107609;1287;30981;-75
2021/12/15 02:18:04;;;;;;;17.40;11.40;;;;;;;1.83;100.00;97658.48;107595;1285;37509;-75
2021/12/15 02:20:37;;;;;;;22.30;12.70;;;;;;;1.86;100.00;97658.49;107481;1287;42708;-75
2021/12/15 02:23:08;;;;;;;20.20;14.10;;;;;;;1.85;100.00;97657.36;107549;1287;37447;-75
2021/12/15 02:25:37;;;;;;;19.10;10.70;;;;;;;1.85;100.00;97653.83;107492;1286;36237;-75
2021/12/15 02:28:07;;;;;;;27.00;14.90;;;;;;;1.87;100.00;97655.77;107593;1286;34198;-75
2021/12/15 02:30:50;;;;;;;20.90;12.80;;;;;;;1.86;100.00;97653.95;107493;1287;31770;-75
2021/12/15 02:38:56;;;;;;;28.00;16.10;;;;;;;1.81;100.00;97664.48;107467;1287;42871;-75
2021/12/15 02:41:29;;;;;;;24.10;14.90;;;;;;;1.78;100.00;97675.98;107509;1286;28164;-75
2021/12/15 02:44:01;;;;;;;24.10;12.70;;;;;;;1.75;100.00;97686.27;107530;1286;28265;-75
2021/12/15 02:46:33;;;;;;;24.60;15.40;;;;;;;1.72;100.00;97688.45;107480;1287;35692;-74
2021/12/15 02:49:03;;;;;;;26.90;15.50;;;;;;;1.71;100.00;97688.36;107460;1284;37881;-75
2021/12/15 02:51:31;;;;;;;;;;;;;;;1.74;100.00;97683.90;107527;1287;32297;-75
2021/12/15 02:54:00;;;;;;;24.30;15.00;;;;;;;1.75;100.00;97679.16;107411;1286;44213;-75
2021/12/15 02:56:29;;;;;;;28.40;17.30;;;;;;;1.75;100.00;97676.52;107497;1287;30672;-75
2021/12/15 02:59:02;;;;;;;22.30;13.70;;;;;;;1.74;100.00;97670.99;107521;1285;42019;-75
2021/12/15 03:01:40;;;;;;;27.10;17.70;;;;;;;1.73;100.00;97676.46;107517;1284;32019;-75
2021/12/15 03:06:57;;;;;;;22.30;13.10;;;;;;;1.71;100.00;97689.17;107560;1287;37678;-75
2021/12/15 03:15:22;;;;;;;26.70;16.80;;;;;;;1.71;100.00;97696.13;107566;1287;38269;-75
2021/12/15 03:17:56;;;;;;;25.10;15.60;;;;;;;1.78;100.00;97696.73;107561;1287;35101;-75
2021/12/15 03:20:27;;;;;;;21.00;12.30;;;;;;;1.77;100.00;97693.37;107514;1287;35447;-76
2021/12/15 03:22:54;;;;;;;;;;;;;;;1.73;100.00;97698.82;107534;1287;36614;-75
2021/12/15 03:25:24;;;;;;;21.00;11.90;;;;;;;1.73;100.00;97699.63;107547;1287;31731;-75
2021/12/15 03:33:54;;;;;;;25.80;14.80;;;;;;;1.79;100.00;97705.20;107467;1287;37193;-75
2021/12/15 03:36:37;;;;;;;21.20;12.60;;;;;;;1.80;100.00;97700.33;107631;1286;38680;-75
2021/12/15 03:39:08;;;;;;;19.50;11.80;;;;;;;1.77;100.00;97701.36;107478;1286;37465;-75
2021/12/15 03:41:37;;;;;;;17.40;10.40;;;;;;;1.78;100.00;97703.58;107494;1286;29142;-74
2021/12/15 03:44:08;;;;;;;20.00;11.10;;;;;;;1.74;100.00;97708.71;107564;1286;31559;-74
2021/12/15 03:46:37;;;;;;;18.60;10.60;;;;;;;1.73;100.00;97708.40;107497;1287;33334;-74
2021/12/15 03:49:06;;;;;;;17.40;10.60;;;;;;;1.77;100.00;97709.25;107463;1286;36906;-74
2021/12/15 03:51:35;;;;;;;18.10;9.50;;;;;;;1.78;100.00;97709.77;107450;1286;37100;-74
2021/12/15 03:54:04;;;;;;;16.70;10.70;;;;;;;1.82;100.00;97713.29;107468;1287;36467;-75
2021/12/15 03:56:36;;;;;;;16.50;10.80;;;;;;;1.88;100.00;97719.31;107519;1287;27680;-74
2021/12/15 03:59:07;;;;;;;17.40;11.00;;;;;;;1.95;100.00;97721.59;107501;1286;39629;-74
2021/12/15 04:01:37;;;;;;;18.50;12.70;;;;;;;2.03;100.00;97717.92;107530;1286;29701;-74
2021/12/15 04:04:06;;;;;;;17.40;11.30;;;;;;;2.09;100.00;97720.30;107494;1287;30716;-74
2021/12/15 04:06:38;;;;;;;8.40;6.30;;;;;;;2.10;100.00;97720.75;107610;1287;41220;-74
2021/12/15 04:09:10;;;;;;;17.00;11.70;;;;;;;2.16;100.00;97719.77;107532;1287;48139;-74
2021/12/15 04:11:40;;;;;;;12.40;7.80;;;;;;;2.17;100.00;97725.61;107519;1287;38117;-74
2021/12/15 04:14:12;;;;;;;19.10;11.90;;;;;;;2.17;100.00;97720.89;107472;1284;35148;-74
2021/12/15 04:16:45;;;;;;;15.20;8.70;;;;;;;2.13;100.00;97722.53;107571;1286;32570;-74
2021/12/15 04:19:15;;;;;;;19.00;11.30;;;;;;;2.09;100.00;97730.31;107591;1287;40625;-74
2021/12/15 04:21:43;;;;;;;;;;;;;;;2.05;100.00;97733.09;107535;1287;30011;-74
2021/12/15 04:24:15;;;;;;;17.90;11.20;;;;;;;2.04;100.00;97724.59;107500;1287;37924;-74
2021/12/15 04:26:44;;;;;;;14.40;8.80;;;;;;;2.08;100.00;97731.04;107514;1287;38466;-74
2021/12/15 04:29:13;;;;;;;18.30;9.60;;;;;;;2.10;100.00;97733.98;107517;1287;37829;-74
2021/12/15 04:31:50;;;;;;;21.60;12.90;;;;;;;2.12;100.00;97733.57;107466;1287;34971;-74
2021/12/15 04:34:19;;;;;;;18.50;10.40;;;;;;;2.12;100.00;97730.41;107497;1287;38106;-74
2021/12/15 04:36:51;;;;;;;18.40;11.80;;;;;;;2.12;100.00;97736.99;107508;1286;32651;-74
2021/12/15 04:39:23;;;;;;;21.30;13.10;;;;;;;2.12;100.00;97736.83;107586;1287;30146;-75
2021/12/15 04:41:52;;;;;;;17.20;9.10;;;;;;;2.11;100.00;97737.14;107624;1287;35343;-74
2021/12/15 04:44:26;;;;;;;18.10;10.10;;;;;;;2.11;100.00;97738.73;107554;1287;36225;-75
2021/12/15 04:47:00;;;;;;;26.60;17.40;;;;;;;2.12;100.00;97736.86;107523;1287;28096;-75
2021/12/15 04:49:31;;;;;;;19.60;12.80;;;;;;;2.13;100.00;97736.59;107562;1285;30053;-75
2021/12/15 04:52:03;;;;;;;17.50;10.10;;;;;;;2.16;100.00;97743.35;107469;1286;38199;-75
2021/12/15 04:54:32;;;;;;;20.40;10.70;;;;;;;2.18;100.00;97748.47;107517;1286;34440;-75
2021/12/15 04:57:01;;;;;;;15.90;10.20;;;;;;;2.19;100.00;97748.70;107613;1287;39361;-74
2021/12/15 04:59:30;;;;;;;18.40;9.50;;;;;;;2.22;100.00;97749.03;107588;1286;34633;-75
2021/12/15 05:02:00;;;;;;;22.30;11.30;;;;;;;2.23;100.00;97753.73;107510;1285;39933;-75
2021/12/15 05:04:29;;;;;;;15.50;9.70;;;;;;;2.23;100.00;97754.27;107502;1287;31652;-75
2021/12/15 05:06:57;;;;;;;18.20;11.20;;;;;;;2.24;100.00;97758.83;107509;1287;45273;-75
2021/12/15 05:09:26;;;;;;;17.80;10.20;;;;;;;2.23;100.00;97761.35;107480;1287;34340;-75
2021/12/15 05:11:55;;;;;;;17.50;10.60;;;;;;;2.24;100.00;97765.14;107456;1287;40948;-75
2021/12/15 05:14:25;;;;;;;20.20;13.90;;;;;;;2.25;100.00;97769.24;107564;1286;38022;-74
2021/12/15 05:16:54;;;;;;;25.40;16.90;;;;;;;2.22;100.00;97772.66;107583;1287;26121;-75
2021/12/15 05:19:25;;;;;;;25.70;16.20;;;;;;;2.18;100.00;97775.55;107657;1286;28516;-75
2021/12/15 05:21:52;;;;;;;;;;;;;;;2.15;100.00;97777.31;107665;1286;40034;-74
2021/12/15 05:24:30;;;;;;;23.20;14.20;;;;;;;2.09;100.00;97779.58;107656;1286;35545;-75
2021/12/15 05:27:01;;;;;;;19.40;12.10;;;;;;;2.03;100.00;97777.95;107581;1287;33802;-75
2021/12/15 05:29:30;;;;;;;22.10;13.50;;;;;;;2.04;100.00;97778.15;107515;1286;36755;-75
2021/12/15 05:31:59;;;;;;;24.50;14.10;;;;;;;2.01;100.00;97772.59;107594;1287;31944;-74
2021/12/15 05:34:28;;;;;;;21.90;12.70;;;;;;;1.99;100.00;97776.86;107598;1286;29218;-74
2021/12/15 05:36:57;;;;;;;26.60;17.10;;;;;;;1.96;100.00;97775.73;107567;1287;41016;-74
2021/12/15 05:39:26;;;;;;;25.60;17.60;;;;;;;1.89;100.00;97776.96;107515;1287;31771;-74
2021/12/15 05:41:55;;;;;;;28.10;17.50;;;;;;;1.81;100.00;97783.30;107497;1287;36717;-74
2021/12/15 05:44:26;;;;;;;26.50;19.50;;;;;;;1.76;100.00;97784.25;107562;1287;41274;-74
2021/12/15 05:46:57;;;;;;;28.40;17.70;;;;;;;1.75;100.00;97789.56;107536;1286;47037;-74
2021/12/15 05:49:27;;;;;;;29.10;17.10;;;;;;;1.77;100.00;97796.60;107568;1287;34111;-74
2021/12/15 05:51:56;;;;;;;26.20;16.10;;;;;;;1.80;100.00;97795.00;107581;1286;29868;-74
2021/12/15 05:54:26;;;;;;;27.10;15.70;;;;;;;1.83;100.00;97798.13;107487;1286;33478;-75
2021/12/15 05:56:55;;;;;;;29.80;17.00;;;;;;;1.85;100.00;97802.58;107512;1286;43515;-75
2021/12/15 05:59:25;;;;;;;33.00;17.20;;;;;;;1.85;100.00;97802.98;107671;1286;37436;-74
2021/12/15 06:01:54;;;;;;;33.20;18.30;;;;;;;1.85;100.00;97808.65;107588;1285;26977;-74
2021/12/15 06:04:23;;;;;;;29.30;17.80;;;;;;;1.85;100.00;97805.02;107530;1287;43656;-74
2021/12/15 06:06:52;;;;;;;31.50;17.80;;;;;;;1.85;100.00;97804.14;107557;1287;27511;-74
2021/12/15 06:09:21;;;;;;;27.40;17.80;;;;;;;1.84;100.00;97801.15;107581;1285;30387;-74
2021/12/15 06:11:52;;;;;;;31.10;16.20;;;;;;;1.82;100.00;97791.79;107669;1287;28417;-74
2021/12/15 06:14:24;;;;;;;24.50;14.60;;;;;;;1.86;100.00;97796.70;107581;1287;27295;-74
2021/12/15 06:16:56;;;;;;;29.30;17.30;;;;;;;1.92;100.00;97796.59;107592;1286;32431;-74
2021/12/15 06:19:25;;;;;;;26.80;15.60;;;;;;;1.97;100.00;97802.05;107495;1287;37064;-74
2021/12/15 06:21:53;;;;;;;30.40;16.10;;;;;;;1.99;100.00;97809.69;107554;1287;37984;-74
2021/12/15 06:24:21;;;;;;;27.50;16.50;;;;;;;1.99;100.00;97814.88;107596;1287;33064;-74
2021/12/15 06:26:50;;;;;;;27.10;17.30;;;;;;;1.97;100.00;97809.90;107541;1287;35029;-74
2021/12/15 06:29:18;;;;;;;31.40;18.30;;;;;;;1.94;100.00;97811.00;107486;1287;35206;-74
2021/12/15 06:31:47;;;;;;;36.80;19.30;;;;;;;1.93;100.00;97806.45;107489;1287;37090;-74
2021/12/15 06:34:16;;;;;;;39.60;22.40;;;;;;;1.91;100.00;97808.06;107580;1287;34226;-74
2021/12/15 06:36:44;;;;;;;37.30;22.80;;;;;;;1.88;100.00;97813.85;107604;1287;29461;-74
2021/12/15 06:39:13;;;;;;;32.90;19.20;;;;;;;1.87;100.00;97817.51;107476;1285;37987;-74
2021/12/15 06:41:41;;;;;;;35.40;20.20;;;;;;;1.88;100.00;97817.90;107483;1285;35240;-74
2021/12/15 06:44:11;;;;;;;36.60;20.00;;;;;;;1.89;100.00;97819.52;107413;1285;37123;-74
2021/12/15 07:00:28;;;;;;;42.90;27.60;;;;;;;1.39;100.00;97823.65;107548;1287;32770;-75
2021/12/15 07:02:58;;;;;;;48.00;28.00;;;;;;;1.37;100.00;97823.23;107480;1287;44964;-75
2021/12/15 07:05:27;;;;;;;37.10;22.40;;;;;;;1.38;100.00;97819.63;107491;1287;32938;-75
2021/12/15 07:07:57;;;;;;;52.90;30.00;;;;;;;1.39;100.00;97822.88;107541;1287;30121;-75
2021/12/15 07:10:29;;;;;;;45.90;26.30;;;;;;;1.43;100.00;97829.25;107491;1286;42450;-75
2021/12/15 07:12:58;;;;;;;44.40;22.90;;;;;;;1.48;100.00;97833.65;107596;1285;33453;-75
2021/12/15 07:15:27;;;;;;;42.30;24.30;;;;;;;1.52;100.00;97836.69;107559;1287;38820;-75
2021/12/15 07:18:02;;;;;;;41.40;24.50;;;;;;;1.54;100.00;97842.30;107498;1286;31529;-75
2021/12/15 07:20:37;;;;;;;40.10;23.80;;;;;;;1.58;100.00;97841.90;107492;1287;36490;-75
2021/12/15 07:23:10;;;;;;;50.10;26.40;;;;;;;1.63;100.00;97848.52;107525;1287;46172;-75
2021/12/15 07:25:41;;;;;;;50.90;26.90;;;;;;;1.67;100.00;97852.59;107563;1287;32867;-75
2021/12/15 07:28:10;;;;;;;47.20;28.70;;;;;;;1.70;100.00;97850.79;107573;1286;29334;-74
2021/12/15 07:30:39;;;;;;;48.40;28.60;;;;;;;1.70;100.00;97851.84;107550;1287;30670;-74
2021/12/15 07:33:12;;;;;;;46.90;27.50;;;;;;;1.73;100.00;97857.08;107385;1287;164515;-74
2021/12/15 07:35:41;;;;;;;39.90;23.90;;;;;;;1.78;100.00;97863.13;107541;1287;37694;-74
2021/12/15 07:38:13;;;;;;;37.70;22.30;;;;;;;1.88;100.00;97871.05;107603;1285;26933;-74
2021/12/15 07:40:42;;;;;;;41.40;22.00;;;;;;;1.96;100.00;97869.88;107570;1287;41448;-74
2021/12/15 07:43:18;;;;;;;32.50;19.40;;;;;;;2.03;100.00;97878.86;107546;1287;41902;-74
2021/12/15 07:45:53;;;;;;;32.80;20.10;;;;;;;2.10;100.00;97882.19;107619;1287;47683;-74
2021/12/15 07:48:24;;;;;;;34.10;19.80;;;;;;;2.15;100.00;97881.91;107556;1287;49691;-74
2021/12/15 07:50:57;;;;;;;35.50;19.20;;;;;;;2.21;100.00;97885.55;107600;1287;30876;-74
2021/12/15 07:53:25;;;;;;;31.00;17.60;;;;;;;2.27;100.00;97890.55;107453;1287;31676;-74
2021/12/15 07:55:55;;;;;;;33.50;18.90;;;;;;;2.33;100.00;97895.15;107598;1287;30488;-74
2021/12/15 07:58:25;;;;;;;27.30;17.30;;;;;;;2.36;100.00;97892.86;107617;1287;35278;-74
2021/12/15 08:00:58;;;;;;;32.40;18.60;;;;;;;2.38;100.00;97895.50;107547;1287;34561;-74
2021/12/15 08:03:28;;;;;;;30.80;17.90;;;;;;;2.41;100.00;97895.25;107509;1286;32239;-74
2021/12/15 08:05:58;;;;;;;29.50;17.40;;;;;;;2.43;100.00;97892.35;107524;1287;38474;-75
2021/12/15 08:08:28;;;;;;;32.10;16.10;;;;;;;2.46;100.00;97895.58;107571;1287;25587;-75
2021/12/15 08:10:57;;;;;;;28.60;17.30;;;;;;;2.48;100.00;97900.26;107501;1286;43175;-75
2021/12/15 08:13:26;;;;;;;32.80;17.30;;;;;;;2.50;100.00;97908.33;107554;1287;37069;-75
2021/12/15 08:15:55;;;;;;;31.70;18.10;;;;;;;2.51;100.00;97911.02;107605;1287;30183;-75
2021/12/15 08:18:24;;;;;;;28.90;16.70;;;;;;;2.50;100.00;97910.48;107611;1287;37016;-74
2021/12/15 08:20:53;;;;;;;31.10;18.10;;;;;;;2.49;100.00;97914.77;107805;1287;32770;-75
2021/12/15 08:23:23;;;;;;;34.40;17.00;;;;;;;2.49;100.00;97919.63;107609;1287;34135;-75
2021/12/15 08:25:52;;;;;;;29.10;16.70;;;;;;;2.50;100.00;97924.22;107566;1287;40870;-74
2021/12/15 08:28:20;;;;;;;29.60;18.20;;;;;;;2.51;100.00;97924.95;107575;1287;26676;-75
2021/12/15 08:30:51;;;;;;;32.10;19.80;;;;;;;2.51;100.00;97927.20;107522;1287;36773;-74
2021/12/15 08:33:22;;;;;;;29.70;18.00;;;;;;;2.51;100.00;97928.33;107509;1286;38970;-74
2021/12/15 08:35:56;;;;;;;29.30;18.40;;;;;;;2.51;100.00;97923.02;107560;1286;38796;-75
2021/12/15 08:38:26;;;;;;;28.70;16.70;;;;;;;2.53;100.00;97927.05;107518;1286;39092;-75
2021/12/15 08:40:56;;;;;;;26.80;16.40;;;;;;;2.56;100.00;97923.83;107518;1284;31621;-75
2021/12/15 08:43:26;;;;;;;18.00;11.70;;;;;;;2.60;100.00;97923.23;107548;1286;35539;-74
2021/12/15 08:45:59;;;;;;;25.70;14.60;;;;;;;2.65;100.00;97921.02;107606;1287;28591;-74
2021/12/15 08:48:27;;;;;;;27.90;16.40;;;;;;;2.69;100.00;97922.91;107504;1284;50867;-75
2021/12/15 08:50:56;;;;;;;23.80;14.70;;;;;;;2.74;100.00;97918.90;107545;1285;34584;-75
2021/12/15 08:53:25;;;;;;;28.60;17.30;;;;;;;2.82;100.00;97918.41;107525;1285;36365;-75
2021/12/15 08:55:54;;;;;;;22.60;13.50;;;;;;;2.85;100.00;97923.38;107564;1286;44758;-74
2021/12/15 08:58:23;;;;;;;22.50;12.00;;;;;;;2.86;100.00;97918.42;107595;1287;45806;-74
2021/12/15 09:00:54;;;;;;;20.50;12.40;;;;;;;2.87;100.00;97923.38;107570;1287;38940;-74
2021/12/15 09:03:24;;;;;;;21.50;12.60;;;;;;;2.90;100.00;97921.57;107595;1286;37015;-74
2021/12/15 09:05:55;;;;;;;18.10;11.00;;;;;;;2.94;100.00;97921.58;107614;1287;43741;-74
2021/12/15 09:08:25;;;;;;;19.40;12.70;;;;;;;2.98;100.00;97919.48;107671;1287;28588;-73
2021/12/15 09:10:57;;;;;;;20.30;12.20;;;;;;;3.03;100.00;97919.55;107560;1287;37689;-74
2021/12/15 09:13:30;;;;;;;20.50;12.20;;;;;;;3.07;100.00;97920.27;107548;1287;34328;-75
2021/12/15 09:16:03;;;;;;;20.80;12.10;;;;;;;3.16;100.00;97916.80;107597;1285;39403;-74
2021/12/15 09:18:32;;;;;;;20.00;11.30;;;;;;;3.24;100.00;97914.56;107532;1286;38184;-74
2021/12/15 09:21:03;;;;;;;19.20;11.90;;;;;;;3.30;100.00;97915.34;107553;1286;34306;-74
2021/12/15 09:23:32;;;;;;;18.30;10.00;;;;;;;3.36;100.00;97915.89;107570;1286;37939;-74
2021/12/15 09:26:02;;;;;;;18.90;11.60;;;;;;;3.39;100.00;97916.79;107604;1287;38229;-74
2021/12/15 09:28:32;;;;;;;17.50;11.80;;;;;;;3.45;100.00;97910.23;107510;1286;37377;-74
2021/12/15 09:31:02;;;;;;;23.00;14.10;;;;;;;3.54;100.00;97911.65;107531;1285;39446;-74
2021/12/15 09:33:33;;;;;;;22.90;15.20;;;;;;;3.60;100.00;97910.40;107625;1287;29654;-73
2021/12/15 09:36:05;;;;;;;22.60;15.10;;;;;;;3.65;100.00;97906.73;107529;1287;36639;-74
2021/12/15 09:38:34;;;;;;;29.70;18.20;;;;;;;3.69;100.00;97902.86;107531;1287;39102;-74
2021/12/15 09:41:06;;;;;;;31.20;18.50;;;;;;;3.72;100.00;97900.04;107570;1285;36988;-74
2021/12/15 09:43:36;;;;;;;29.60;19.30;;;;;;;3.66;100.00;97894.52;107557;1287;46056;-74
2021/12/15 09:46:12;;;;;;;31.10;20.60;;;;;;;3.63;99.98;97893.33;107560;1286;30967;-74
2021/12/15 09:57:48;;;;;;;18.60;11.80;;;;;;;3.64;100.00;97879.52;107339;1290;38985;-74
2021/12/15 10:03:15;;;;;;;24.90;15.10;;;;;;;3.78;99.85;97884.84;107486;1287;45045;-74
2021/12/15 10:05:52;;;;;;;22.30;12.90;;;;;;;3.72;99.47;97884.46;107560;1287;32014;-74
2021/12/15 10:17:40;;;;;;;17.30;10.80;;;;;;;3.45;99.11;97892.48;107588;1287;39950;-74
2021/12/15 10:20:15;;;;;;;23.70;13.90;;;;;;;3.45;98.84;97891.35;107564;1286;35264;-75
2021/12/15 10:22:46;;;;;;;20.20;12.70;;;;;;;3.45;98.81;97890.79;107591;1287;26589;-74
2021/12/15 10:25:20;;;;;;;18.70;11.10;;;;;;;3.48;98.74;97887.76;107595;1286;38011;-74
2021/12/15 10:27:53;;;;;;;23.50;14.90;;;;;;;3.50;98.54;97888.36;107498;1286;42247;-75
2021/12/15 10:30:26;;;;;;;25.10;15.10;;;;;;;3.52;98.69;97888.10;107623;1285;27327;-74
2021/12/15 10:32:59;;;;;;;20.40;11.70;;;;;;;3.54;98.36;97888.06;107633;1285;45646;-74
2021/12/15 10:35:31;;;;;;;17.30;10.70;;;;;;;3.52;98.29;97889.39;107574;1286;30890;-75
2021/12/15 10:38:27;;;;;;;22.10;11.70;;;;;;;3.52;98.22;97884.23;107526;1287;40331;-74
2021/12/15 10:41:01;;;;;;;21.90;13.50;;;;;;;3.52;98.17;97882.34;107449;1287;35936;-75
2021/12/15 10:43:33;;;;;;;17.80;10.30;;;;;;;3.53;98.06;97886.41;107619;1285;29326;-75
2021/12/15 10:46:06;;;;;;;17.90;10.90;;;;;;;3.54;97.78;97887.17;107745;1285;31148;-74
2021/12/15 10:48:49;;;;;;;16.60;9.70;;;;;;;3.56;97.87;97885.52;107589;1285;39283;-75
2021/12/15 10:51:32;;;;;;;19.70;9.90;;;;;;;3.57;97.47;97882.89;107660;1284;39594;-75
2021/12/15 10:54:05;;;;;;;15.40;10.40;;;;;;;3.58;97.51;97879.50;107586;1286;39676;-75
2021/12/15 10:56:38;;;;;;;19.70;10.50;;;;;;;3.57;97.36;97872.45;107605;1287;33148;-75
2021/12/15 10:59:09;;;;;;;18.60;8.70;;;;;;;3.58;97.36;97868.56;107459;1287;30417;-75
2021/12/15 11:01:51;;;;;;;13.50;8.60;;;;;;;3.61;97.46;97864.13;107525;1286;39445;-75
2021/12/15 11:04:33;;;;;;;16.20;9.50;;;;;;;3.67;97.45;97867.18;107569;1286;37913;-74
2021/12/15 11:07:10;;;;;;;17.30;10.40;;;;;;;3.73;97.52;97865.57;107703;1286;31258;-75
2021/12/15 11:09:42;;;;;;;17.80;10.10;;;;;;;3.78;97.30;97863.73;107517;1286;39339;-75
2021/12/15 11:12:17;;;;;;;22.00;13.80;;;;;;;3.81;97.39;97864.64;107562;1286;31616;-75
2021/12/15 11:14:48;;;;;;;21.40;13.10;;;;;;;3.86;97.45;97865.16;107503;1286;43386;-74
2021/12/15 11:17:20;;;;;;;27.70;17.50;;;;;;;3.88;97.54;97864.14;107565;1287;32706;-74
2021/12/15 11:19:54;;;;;;;28.20;17.10;;;;;;;3.89;97.41;97860.66;107454;1286;43187;-74
2021/12/15 11:22:41;;;;;;;30.90;18.90;;;;;;;3.92;97.24;97860.21;107623;1284;35554;-74
2021/12/15 11:25:14;;;;;;;27.40;18.20;;;;;;;3.93;97.16;97853.79;107535;1284;36844;-74
2021/12/15 11:27:43;;;;;;;28.70;17.20;;;;;;;3.94;97.32;97849.81;107535;1285;39293;-74
2021/12/15 11:30:15;;;;;;;32.00;19.90;;;;;;;3.97;97.18;97849.64;107523;1285;29770;-74
2021/12/15 11:32:47;;;;;;;26.70;15.50;;;;;;;3.98;97.28;97851.37;107635;1282;33565;-74
2021/12/15 11:35:20;;;;;;;24.40;14.60;;;;;;;4.00;97.30;97850.23;107553;1287;38120;-74
2021/12/15 11:37:54;;;;;;;21.30;13.80;;;;;;;3.98;97.01;97857.19;107557;1286;34229;-74
2021/12/15 11:40:40;;;;;;;22.80;13.90;;;;;;;3.98;97.17;97854.20;107635;1286;26919;-74
2021/12/15 11:43:09;;;;;;;21.10;14.50;;;;;;;4.01;97.20;97850.95;107514;1286;41716;-74
2021/12/15 11:45:42;;;;;;;22.30;13.50;;;;;;;4.00;97.01;97851.41;107554;1285;32465;-74
2021/12/15 11:48:20;;;;;;;23.40;13.40;;;;;;;3.96;96.86;97846.46;107529;1286;39940;-74
2021/12/15 11:50:51;;;;;;;21.00;12.80;;;;;;;3.92;96.74;97837.86;107520;1286;40215;-74
2021/12/15 11:53:35;;;;;;;19.40;12.80;;;;;;;3.91;96.78;97838.34;107586;1286;38580;-74
2021/12/15 11:56:18;;;;;;;24.80;15.70;;;;;;;3.90;96.71;97833.05;107512;1287;48477;-74
2021/12/15 11:58:49;;;;;;;22.00;14.20;;;;;;;3.90;96.70;97829.86;107542;1287;29645;-74
2021/12/15 12:01:39;;;;;;;23.30;14.30;;;;;;;3.92;96.65;97827.04;107562;1285;34795;-74
2021/12/15 12:04:15;;;;;;;24.30;14.80;;;;;;;3.93;96.63;97826.50;107553;1285;34148;-74
2021/12/15 12:06:45;;;;;;;19.50;12.10;;;;;;;3.95;96.58;97830.52;107524;1287;38415;-75
2021/12/15 12:09:14;;;;;;;21.70;12.10;;;;;;;3.98;96.56;97825.83;107521;1287;29297;-75
2021/12/15 12:11:47;;;;;;;14.90;10.50;;;;;;;3.99;96.55;97820.73;107540;1284;29873;-74
2021/12/15 12:14:26;;;;;;;24.30;14.30;;;;;;;3.99;96.38;97824.94;107592;1286;29714;-74
2021/12/15 12:16:56;;;;;;;27.00;16.30;;;;;;;3.96;96.24;97831.77;107588;1286;32471;-75
2021/12/15 12:19:25;;;;;;;24.00;15.40;;;;;;;3.91;96.34;97828.41;107559;1286;42873;-75
2021/12/15 12:21:54;;;;;;;22.00;14.70;;;;;;;3.90;96.30;97828.41;107567;1286;45133;-74
2021/12/15 12:24:23;;;;;;;27.40;17.20;;;;;;;3.86;96.15;97834.77;107622;1286;33529;-75
2021/12/15 12:26:52;;;;;;;27.40;17.40;;;;;;;3.84;96.34;97838.85;107571;1287;35981;-75
2021/12/15 12:29:20;;;;;;;24.20;17.10;;;;;;;3.85;96.48;97842.76;107631;1284;28932;-74
2021/12/15 12:31:49;;;;;;;25.60;16.30;;;;;;;3.87;96.39;97843.72;107562;1286;35960;-75
2021/12/15 12:34:18;;;;;;;28.70;18.10;;;;;;;3.90;96.59;97845.04;107590;1287;31258;-75